Time;durP1;ratioP1;P1;durP2;ratioP2;P2;SDS_P1;SDS_P2;PMS_P1;PMS_P2;Temp;Humidity;BMP_temperature;BMP_pressure;BME280_temperature;BME280_humidity;BME280_pressure;Samples;Min_cycle;Max_cycle;Signal;HPM_P1;HPM_P2
2022/11/05 00:09:37;;;;;;;;;18.50;13.50;;;;;11.80;57.05;101260.28;5078832;28;45433;-42
2022/11/05 00:17:36;;;;;;;;;14.00;10.00;;;;;11.74;56.79;101263.94;5077876;28;45355;-42
2022/11/05 00:20:03;;;;;;;;;12.00;10.50;;;;;11.74;56.91;101261.31;5074405;27;45352;-42
2022/11/05 00:25:13;;;;;;;;;13.75;11.25;;;;;11.72;56.75;101263.09;5076625;27;45201;-41
2022/11/05 00:27:45;;;;;;;;;13.50;11.25;;;;;11.73;57.20;101266.59;5078602;27;46134;-42
2022/11/05 00:30:12;;;;;;;;;12.25;8.50;;;;;11.73;56.77;101267.44;5076831;27;45957;-42
2022/11/05 00:32:38;;;;;;;;;13.00;11.00;;;;;11.72;56.82;101264.84;5079847;27;45309;-42
2022/11/05 00:35:05;;;;;;;;;12.25;10.00;;;;;11.71;56.89;101265.75;5076975;27;45232;-42
2022/11/05 00:37:30;;;;;;;;;13.50;12.00;;;;;11.68;57.02;101260.56;5078210;28;45462;-43
2022/11/05 00:39:56;;;;;;;;;12.75;11.00;;;;;11.69;56.65;101265.78;5076715;27;65816;-42
2022/11/05 00:45:06;;;;;;;;;14.00;12.75;;;;;11.68;57.03;101271.06;5075285;28;45413;-42
2022/11/05 00:50:17;;;;;;;;;11.50;9.50;;;;;11.64;56.95;101279.91;5076775;28;45351;-42
2022/11/05 00:52:54;;;;;;;;;13.00;10.00;;;;;11.61;56.88;101274.72;5075626;27;45345;-42
2022/11/05 00:55:20;;;;;;;;;16.50;11.00;;;;;11.61;56.82;101266.88;5068284;27;45321;-43
2022/11/05 00:57:46;;;;;;;;;13.50;10.00;;;;;11.59;56.78;101273.00;5075530;27;45471;-42
2022/11/05 01:00:11;;;;;;;;;11.75;8.75;;;;;11.58;56.90;101283.53;5070611;28;69810;-43
2022/11/05 01:02:37;;;;;;;;;10.75;9.00;;;;;11.57;56.87;101287.91;5078770;27;45360;-41
2022/11/05 01:05:02;;;;;;;;;11.00;9.25;;;;;11.57;56.92;101280.03;5074012;28;71025;-41
2022/11/05 01:07:28;;;;;;;;;12.75;9.75;;;;;11.58;56.92;101273.91;5078615;27;46314;-41
2022/11/05 01:09:53;;;;;;;;;10.00;8.50;;;;;11.60;56.95;101268.63;5077179;27;71701;-43
2022/11/05 01:12:18;;;;;;;;;10.00;10.00;;;;;11.61;57.26;101266.88;5084461;27;66268;-42
2022/11/05 01:14:44;;;;;;;;;9.25;8.50;;;;;11.61;56.76;101267.72;5081609;27;59345;-42
2022/11/05 01:17:09;;;;;;;;;11.25;9.00;;;;;11.60;57.05;101276.50;5076980;27;46048;-45
2022/11/05 01:19:35;;;;;;;;;10.50;9.00;;;;;11.61;56.89;101272.09;5083088;27;61456;-45
2022/11/05 01:22:00;;;;;;;;;11.00;9.25;;;;;11.62;57.12;101271.22;5080428;27;45398;-42
2022/11/05 01:24:25;;;;;;;;;8.50;7.00;;;;;11.64;56.69;101277.28;5080543;27;61641;-45
2022/11/05 01:26:51;;;;;;;;;11.25;9.50;;;;;11.64;56.95;101266.81;5073375;28;55642;-44
2022/11/05 01:29:16;;;;;;;;;13.00;8.00;;;;;11.63;56.75;101268.53;5081905;27;53073;-42
2022/11/05 01:31:42;;;;;;;;;11.00;7.50;;;;;11.64;57.04;101266.81;5081334;27;45354;-41
2022/11/05 01:34:07;;;;;;;;;12.25;6.75;;;;;11.63;56.60;101260.66;5081843;27;45626;-42
2022/11/05 01:36:32;;;;;;;;;12.50;8.50;;;;;11.66;56.67;101268.47;5081278;27;68209;-43
2022/11/05 01:38:58;;;;;;;;;13.00;9.00;;;;;11.68;56.55;101268.44;5081489;27;65058;-42
2022/11/05 01:41:23;;;;;;;;;12.25;8.75;;;;;11.69;56.96;101268.41;5081472;27;63614;-43
2022/11/05 01:43:55;;;;;;;;;13.50;11.00;;;;;11.71;57.22;101274.47;5080701;27;67990;-45
2022/11/05 01:46:30;;;;;;;;;10.75;8.75;;;;;11.73;56.70;101275.31;5082121;27;46517;-42
2022/11/05 01:49:03;;;;;;;;;10.50;8.25;;;;;11.74;56.56;101274.41;5078017;27;45873;-45
2022/11/05 01:51:28;;;;;;;;;10.25;7.00;;;;;11.72;56.77;101273.59;5080857;28;45501;-40
2022/11/05 01:53:58;;;;;;;;;13.75;9.50;;;;;11.72;56.70;101276.22;5080133;28;65565;-43
2022/11/05 01:56:33;;;;;;;;;8.50;7.00;;;;;11.74;56.91;101278.81;5079386;28;47173;-42
2022/11/05 01:59:10;;;;;;;;;11.00;5.50;;;;;11.72;56.73;101280.56;5072180;27;45342;-48
2022/11/05 02:01:36;;;;;;;;;9.25;7.50;;;;;11.71;56.71;101277.09;5070663;27;45230;-48
2022/11/05 02:04:05;;;;;;;;;12.00;9.50;;;;;11.70;56.53;101270.13;5070907;28;45381;-43
2022/11/05 02:06:33;;;;;;;;;10.25;8.50;;;;;11.70;56.92;101278.00;5081150;28;45414;-44
2022/11/05 02:09:12;;;;;;;;;11.50;9.00;;;;;11.70;56.45;101275.38;5081771;27;45474;-42
2022/11/05 02:11:37;;;;;;;;;10.75;9.50;;;;;11.71;56.77;101273.63;5082132;27;45239;-41
2022/11/05 02:14:04;;;;;;;;;13.50;10.25;;;;;11.71;56.84;101269.22;5083972;27;45583;-41
2022/11/05 02:16:39;;;;;;;;;10.75;8.75;;;;;11.69;56.58;101281.53;5080958;27;66066;-41
2022/11/05 02:19:42;;;;;;;;;11.50;7.00;;;;;11.65;56.84;101277.25;5075023;27;45817;-41
2022/11/05 02:22:44;;;;;;;;;11.00;9.00;;;;;11.61;56.85;101274.72;5080960;27;45566;-45
2022/11/05 02:25:47;;;;;;;;;9.50;8.25;;;;;11.60;56.91;101273.88;5083186;27;45647;-42
2022/11/05 02:28:40;;;;;;;;;8.25;7.75;;;;;11.59;56.79;101269.50;5079601;27;45512;-41
2022/11/05 02:31:16;;;;;;;;;9.25;7.50;;;;;11.59;56.83;101269.50;5079888;27;45331;-42
2022/11/05 02:33:55;;;;;;;;;11.00;9.00;;;;;11.61;57.07;101277.34;5078017;28;45489;-41
2022/11/05 02:36:29;;;;;;;;;8.75;7.00;;;;;11.60;56.95;101284.34;5076185;27;45331;-43
2022/11/05 02:39:22;;;;;;;;;12.00;7.50;;;;;11.59;56.76;101282.63;5080674;28;45251;-41
2022/11/05 02:41:52;;;;;;;;;12.00;10.00;;;;;11.57;57.12;101277.41;5079460;27;45860;-43
2022/11/05 02:44:29;;;;;;;;;7.75;7.50;;;;;11.59;57.07;101275.63;5079741;27;45296;-42
2022/11/05 02:47:14;;;;;;;;;7.50;7.00;;;;;11.59;56.83;101280.00;5077559;28;45374;-41
2022/11/05 02:49:55;;;;;;;;;9.75;7.00;;;;;11.61;57.18;101282.59;5079736;27;46399;-42
2022/11/05 02:52:49;;;;;;;;;10.75;6.25;;;;;11.59;56.99;101280.00;5079876;27;46037;-42
2022/11/05 02:55:24;;;;;;;;;10.25;8.00;;;;;11.57;57.00;101285.28;5069206;27;45377;-45
2022/11/05 02:57:49;;;;;;;;;6.00;5.00;;;;;11.54;57.07;101280.13;5074963;27;45390;-45
2022/11/05 03:00:45;;;;;;;;;6.25;5.75;;;;;11.50;56.98;101277.59;5065471;28;46055;-42
2022/11/05 03:03:25;;;;;;;;;8.50;5.25;;;;;11.47;57.23;101272.41;5079799;28;45263;-42
2022/11/05 03:05:59;;;;;;;;;7.50;6.75;;;;;11.44;57.11;101277.72;5080874;27;45361;-43
2022/11/05 03:08:40;;;;;;;;;8.50;6.75;;;;;11.42;56.89;101277.78;5076371;27;45984;-43
2022/11/05 03:11:28;;;;;;;;;7.50;5.25;;;;;11.43;57.32;101262.91;5080791;28;46192;-41
2022/11/05 03:13:53;;;;;;;;;10.25;5.75;;;;;11.45;57.38;101268.97;5080545;27;45287;-42
2022/11/05 03:16:30;;;;;;;;;5.75;5.75;;;;;11.47;57.33;101275.88;5076438;27;45378;-43
2022/11/05 03:19:17;;;;;;;;;6.50;5.75;;;;;11.50;57.60;101264.47;5077390;27;45397;-42
2022/11/05 03:21:51;;;;;;;;;9.00;6.50;;;;;11.51;57.47;101261.84;5080426;27;46266;-41
2022/11/05 03:24:21;;;;;;;;;9.50;5.50;;;;;11.56;57.46;101261.72;5079483;27;45914;-41
2022/11/05 03:26:53;;;;;;;;;7.00;5.75;;;;;11.57;57.61;101269.53;5077594;27;45437;-41
2022/11/05 03:29:23;;;;;;;;;6.50;6.00;;;;;11.59;57.51;101266.91;5079547;28;45510;-41
2022/11/05 03:31:51;;;;;;;;;9.75;5.50;;;;;11.63;57.38;101270.31;5075869;28;46843;-42
2022/11/05 03:34:18;;;;;;;;;10.50;6.75;;;;;11.63;57.50;101263.28;5078996;28;45766;-40
2022/11/05 03:36:47;;;;;;;;;9.00;6.25;;;;;11.65;57.38;101258.91;5079583;27;45492;-43
2022/11/05 03:39:18;;;;;;;;;9.50;6.25;;;;;11.64;57.31;101269.44;5078429;28;45472;-42
2022/11/05 03:41:46;;;;;;;;;7.50;7.00;;;;;11.65;57.49;101261.53;5078023;27;45410;-41
2022/11/05 03:44:14;;;;;;;;;8.00;6.50;;;;;11.63;57.33;101260.66;5077475;28;45763;-42
2022/11/05 03:46:48;;;;;;;;;7.00;6.00;;;;;11.62;57.61;101252.88;5077071;28;45415;-43
2022/11/05 03:49:27;;;;;;;;;10.75;7.00;;;;;11.62;57.66;101261.59;5062484;27;45446;-42
2022/11/05 03:51:58;;;;;;;;;11.50;7.25;;;;;11.62;57.87;101252.88;5077665;28;46389;-41
2022/11/05 03:54:23;;;;;;;;;6.75;6.25;;;;;11.63;57.49;101249.34;5078510;27;46108;-41
2022/11/05 03:57:02;;;;;;;;;9.75;7.75;;;;;11.63;57.60;101247.56;5077718;27;61215;-41
2022/11/05 03:59:29;;;;;;;;;10.50;6.75;;;;;11.63;57.62;101258.06;5072259;27;46206;-41
2022/11/05 04:01:55;;;;;;;;;7.00;7.00;;;;;11.66;57.66;101258.00;5073950;28;55039;-41
2022/11/05 04:04:20;;;;;;;;;7.75;6.25;;;;;11.66;57.50;101252.75;5078235;28;45327;-44
2022/11/05 04:14:58;;;;;;;;;8.50;5.75;;;;;11.68;57.55;101261.44;5073505;28;45884;-47
2022/11/05 04:17:23;;;;;;;;;9.50;6.00;;;;;11.68;57.49;101252.72;5081450;27;50899;-43
2022/11/05 04:25:19;;;;;;;;;9.50;6.50;;;;;11.65;57.54;101274.63;5078664;27;45292;-42
2022/11/05 04:27:45;;;;;;;;;7.50;7.00;;;;;11.67;57.84;101270.22;5079969;27;46254;-40
2022/11/05 04:30:17;;;;;;;;;9.25;6.00;;;;;11.69;57.62;101272.81;5077572;27;45403;-41
2022/11/05 04:33:05;;;;;;;;;10.00;8.00;;;;;11.70;57.49;101282.38;5079161;27;45449;-49
2022/11/05 04:35:38;;;;;;;;;6.25;5.75;;;;;11.70;57.63;101279.75;5078847;27;45173;-42
2022/11/05 04:38:11;;;;;;;;;6.50;6.00;;;;;11.70;57.70;101292.88;5079840;27;45542;-42
2022/11/05 04:40:37;;;;;;;;;8.50;5.00;;;;;11.69;57.70;101284.16;5079532;27;45464;-47
2022/11/05 04:43:04;;;;;;;;;5.00;4.00;;;;;11.68;57.65;101287.66;5077963;27;46869;-46
2022/11/05 04:45:33;;;;;;;;;8.50;5.00;;;;;11.69;57.75;101289.38;5079385;28;45256;-43
2022/11/05 04:47:58;;;;;;;;;4.00;2.00;;;;;11.67;57.54;101274.56;5082221;27;45190;-41
2022/11/05 04:50:24;;;;;;;;;5.00;3.75;;;;;11.66;57.78;101283.34;5069591;27;45445;-42
2022/11/05 04:52:49;;;;;;;;;8.00;5.50;;;;;11.68;57.54;101281.56;5077206;27;74406;-41
2022/11/05 04:55:14;;;;;;;;;3.25;2.75;;;;;11.69;57.78;101276.28;5079657;28;61090;-42
2022/11/05 04:57:40;;;;;;;;;9.00;5.00;;;;;11.73;57.86;101283.16;5075487;27;45307;-43
2022/11/05 05:00:06;;;;;;;;;4.25;4.00;;;;;11.76;57.46;101284.88;5080551;27;64832;-42
2022/11/05 05:02:32;;;;;;;;;4.00;4.00;;;;;11.77;57.41;101286.56;5082036;27;46827;-41
2022/11/05 05:04:57;;;;;;;;;9.00;4.00;;;;;11.79;57.39;101292.66;5073604;28;45406;-42
2022/11/05 05:07:22;;;;;;;;;5.75;5.50;;;;;11.80;57.23;101288.28;5077014;27;58959;-41
2022/11/05 05:09:48;;;;;;;;;6.00;4.00;;;;;11.77;57.35;101295.34;5082886;27;45389;-42
2022/11/05 05:12:13;;;;;;;;;4.25;3.00;;;;;11.80;57.65;101293.53;5081506;27;73881;-41
2022/11/05 05:14:38;;;;;;;;;4.00;4.00;;;;;11.82;57.38;101297.84;5080659;28;64238;-40
2022/11/05 05:17:04;;;;;;;;;7.25;5.50;;;;;11.81;57.35;101306.59;5077764;28;45418;-41
2022/11/05 05:21:37;;;;;;;;;5.00;3.00;;;;;11.81;57.67;101309.22;5080141;27;72733;-41
2022/11/05 05:22:14;;;;;;;;;7.25;6.00;;;;;11.82;57.41;101310.09;5079536;27;45368;-42
2022/11/05 05:24:40;;;;;;;;;4.00;3.00;;;;;11.82;57.53;101304.84;5074533;27;74019;-42
2022/11/05 05:27:05;;;;;;;;;12.50;4.00;;;;;11.83;57.44;101310.06;5077124;28;54406;-42
2022/11/05 05:29:30;;;;;;;;;7.00;4.25;;;;;11.81;57.51;101304.00;5081898;27;45434;-42
2022/11/05 05:31:56;;;;;;;;;4.75;4.50;;;;;11.82;57.38;101299.59;5078469;28;72071;-45
2022/11/05 05:34:21;;;;;;;;;5.00;5.00;;;;;11.78;57.40;101291.78;5080234;27;60796;-43
2022/11/05 05:36:46;;;;;;;;;5.50;3.00;;;;;11.76;57.51;101296.22;5078115;27;45453;-43
2022/11/05 05:39:12;;;;;;;;;3.50;3.00;;;;;11.74;57.34;101300.63;5080338;28;64882;-45
2022/11/05 05:41:37;;;;;;;;;9.00;6.00;;;;;11.75;57.41;101309.34;5079953;27;70191;-42
2022/11/05 05:44:04;;;;;;;;;5.00;4.00;;;;;11.75;57.51;101304.13;5084428;27;55504;-40
2022/11/05 05:46:29;;;;;;;;;5.50;5.00;;;;;11.76;57.58;101300.59;5082322;27;45422;-42
2022/11/05 05:48:54;;;;;;;;;4.00;4.00;;;;;11.77;57.79;101311.06;5081459;27;60888;-48
2022/11/05 05:51:20;;;;;;;;;10.00;4.00;;;;;11.78;57.42;101307.53;5081680;27;46107;-42
2022/11/05 05:53:45;;;;;;;;;5.00;4.25;;;;;11.79;57.40;101308.38;5081266;27;55374;-45
2022/11/05 05:56:13;;;;;;;;;8.75;6.00;;;;;11.78;57.36;101314.53;5081921;27;45354;-44
2022/11/05 05:58:39;;;;;;;;;4.25;2.75;;;;;11.76;57.43;101297.97;5071239;27;45473;-42
2022/11/05 06:01:09;;;;;;;;;5.00;4.00;;;;;11.75;57.62;101298.88;5114345;27;46203;-44
2022/11/05 06:03:35;;;;;;;;;7.25;5.00;;;;;11.74;57.52;101308.50;5081643;27;45869;-45
2022/11/05 06:06:02;;;;;;;;;7.25;4.75;;;;;11.73;57.58;101311.16;5080942;27;69323;-43
2022/11/05 06:08:28;;;;;;;;;5.00;4.00;;;;;11.73;57.73;101311.16;5081946;28;45409;-43
2022/11/05 06:10:53;;;;;;;;;7.00;4.00;;;;;11.73;57.73;101314.63;5080732;28;46264;-41
2022/11/05 06:13:19;;;;;;;;;4.25;4.25;;;;;11.75;57.67;101314.59;5080930;27;45310;-42
2022/11/05 06:15:44;;;;;;;;;5.50;4.25;;;;;11.73;57.62;101306.75;5074367;27;65669;-41
2022/11/05 06:18:09;;;;;;;;;5.75;3.75;;;;;11.74;57.51;101310.28;5085503;27;61723;-41
2022/11/05 06:20:34;;;;;;;;;7.50;5.00;;;;;11.77;57.65;101318.03;5077013;28;67377;-44
2022/11/05 06:23:00;;;;;;;;;4.25;4.00;;;;;11.77;57.44;101331.16;5080986;27;66027;-43
2022/11/05 06:25:25;;;;;;;;;6.75;4.75;;;;;11.75;57.42;101325.09;5078037;27;68956;-42
2022/11/05 06:27:52;;;;;;;;;10.00;5.25;;;;;11.74;57.42;101326.84;5080492;27;45428;-46
2022/11/05 06:30:17;;;;;;;;;9.50;5.00;;;;;11.74;57.49;101323.38;5060414;28;46291;-44
2022/11/05 06:32:43;;;;;;;;;4.75;4.75;;;;;11.73;57.42;101329.50;5080675;27;45261;-42
2022/11/05 06:35:09;;;;;;;;;7.50;4.50;;;;;11.71;57.97;101334.78;5077181;28;45379;-45
2022/11/05 06:37:34;;;;;;;;;5.00;5.00;;;;;11.73;57.68;101334.75;5080229;27;45364;-41
2022/11/05 06:40:00;;;;;;;;;4.00;4.00;;;;;11.74;57.34;101342.59;5079058;27;68028;-44
2022/11/05 06:42:25;;;;;;;;;6.00;4.25;;;;;11.72;57.71;101333.91;5081107;27;45369;-41
2022/11/05 06:44:51;;;;;;;;;4.00;3.00;;;;;11.71;57.86;101326.06;5079725;27;45418;-40
2022/11/05 06:47:18;;;;;;;;;5.00;4.00;;;;;11.69;57.82;101331.34;5079564;27;45521;-42
2022/11/05 06:49:44;;;;;;;;;6.50;5.50;;;;;11.67;57.74;101335.75;5075576;27;46621;-42
2022/11/05 06:52:09;;;;;;;;;5.75;4.00;;;;;11.66;57.55;101336.63;5078998;27;45415;-44
2022/11/05 06:54:35;;;;;;;;;6.25;4.50;;;;;11.66;57.91;101344.50;5077621;27;45214;-42
2022/11/05 06:57:00;;;;;;;;;6.25;2.75;;;;;11.66;57.68;101348.91;5077814;27;71472;-46
2022/11/05 06:59:25;;;;;;;;;5.00;4.25;;;;;11.65;57.75;101341.91;5071050;27;47024;-43
2022/11/05 07:01:51;;;;;;;;;5.75;4.00;;;;;11.66;57.84;101341.03;5075402;27;71999;-42
2022/11/05 07:04:16;;;;;;;;;2.25;2.00;;;;;11.69;57.79;101339.22;5075662;27;66514;-44
2022/11/05 07:06:41;;;;;;;;;6.00;4.75;;;;;11.72;57.93;101341.78;5072661;27;62925;-45
2022/11/05 07:09:07;;;;;;;;;7.00;5.00;;;;;11.75;57.67;101351.31;5078284;27;46852;-44
2022/11/05 07:11:32;;;;;;;;;6.25;4.00;;;;;11.74;57.62;101358.31;5080940;27;45150;-42
2022/11/05 07:13:57;;;;;;;;;7.50;4.50;;;;;11.74;57.59;101354.84;5079834;27;66612;-43
2022/11/05 07:16:23;;;;;;;;;5.00;4.00;;;;;11.75;57.99;101351.31;5075954;28;45537;-42
2022/11/05 07:18:48;;;;;;;;;4.50;3.75;;;;;11.76;58.02;101353.91;5075631;28;47138;-43
2022/11/05 07:21:14;;;;;;;;;6.50;3.75;;;;;11.76;57.79;101351.28;5079263;28;45241;-44
2022/11/05 07:23:39;;;;;;;;;4.75;4.00;;;;;11.79;57.60;101360.81;5077141;27;45315;-44
2022/11/05 07:26:04;;;;;;;;;3.00;3.00;;;;;11.79;57.59;101350.34;5077996;27;68823;-45
2022/11/05 07:28:30;;;;;;;;;5.00;4.25;;;;;11.80;57.60;101356.47;5079498;27;68258;-43
2022/11/05 07:30:57;;;;;;;;;7.25;4.00;;;;;11.80;57.67;101353.84;5072506;27;45486;-42
2022/11/05 07:33:22;;;;;;;;;7.75;5.00;;;;;11.82;57.72;101346.81;5079063;27;45320;-44
2022/11/05 07:35:48;;;;;;;;;7.00;3.25;;;;;11.86;57.64;101356.31;5079623;27;66436;-42
2022/11/05 07:38:13;;;;;;;;;6.75;5.50;;;;;11.87;57.85;101366.78;5078568;27;54150;-47
2022/11/05 07:40:38;;;;;;;;;5.00;4.25;;;;;11.89;57.54;101369.38;5078535;27;45361;-42
2022/11/05 07:43:04;;;;;;;;;5.75;4.00;;;;;11.92;57.76;101366.72;5080219;27;45302;-42
2022/11/05 07:45:30;;;;;;;;;7.00;4.75;;;;;11.95;57.40;101371.88;5079031;27;45490;-41
2022/11/05 07:47:57;;;;;;;;;7.00;5.00;;;;;11.97;57.33;101372.72;5076696;27;45341;-45
2022/11/05 07:50:25;;;;;;;;;6.75;3.50;;;;;12.01;57.31;101376.13;5078922;27;45394;-43
2022/11/05 07:52:50;;;;;;;;;9.75;4.25;;;;;12.03;57.43;101377.81;5080085;27;46576;-42
2022/11/05 07:55:17;;;;;;;;;7.75;5.25;;;;;12.08;57.34;101380.34;5079805;27;45568;-42
2022/11/05 07:57:43;;;;;;;;;4.75;4.00;;;;;12.10;57.53;101376.78;5073754;27;45268;-42
2022/11/05 08:00:14;;;;;;;;;5.00;4.00;;;;;12.13;57.38;101371.47;5064659;28;45427;-46
2022/11/05 08:02:40;;;;;;;;;5.50;4.25;;;;;12.15;57.17;101371.44;5075901;27;45414;-45
2022/11/05 08:05:06;;;;;;;;;6.75;5.00;;;;;12.19;57.03;101366.97;5075124;28;45371;-42
2022/11/05 08:07:32;;;;;;;;;8.50;6.00;;;;;12.22;57.15;101370.41;5079768;28;47273;-42
2022/11/05 08:09:57;;;;;;;;;4.50;4.00;;;;;12.27;56.98;101372.88;5079661;27;45331;-42
2022/11/05 08:12:22;;;;;;;;;5.00;4.25;;;;;12.31;57.00;101378.03;5079920;27;45307;-42
2022/11/05 08:14:48;;;;;;;;;3.00;3.00;;;;;12.34;56.81;101377.09;5077350;27;71312;-45
2022/11/05 08:17:13;;;;;;;;;5.50;3.25;;;;;12.39;56.84;101377.84;5074372;28;51909;-44
2022/11/05 08:19:38;;;;;;;;;3.75;3.00;;;;;12.41;57.03;101380.44;5076175;27;63153;-42
2022/11/05 08:22:03;;;;;;;;;5.75;5.00;;;;;12.45;56.70;101382.97;5077294;27;61915;-42
2022/11/05 08:24:29;;;;;;;;;6.00;5.00;;;;;12.47;56.66;101370.66;5078257;27;72394;-42
2022/11/05 08:26:54;;;;;;;;;6.00;3.00;;;;;12.48;56.95;101372.41;5077106;27;70788;-42
2022/11/05 08:29:19;;;;;;;;;3.50;2.25;;;;;12.52;56.70;101376.66;5076478;28;72235;-42
2022/11/05 08:31:45;;;;;;;;;6.50;4.00;;;;;12.53;56.61;101388.88;5078267;27;67343;-44
2022/11/05 08:34:10;;;;;;;;;5.25;3.00;;;;;12.53;56.61;101386.25;5076962;28;59953;-47
2022/11/05 08:36:35;;;;;;;;;6.00;2.00;;;;;12.53;56.19;101386.25;5078334;27;72414;-43
2022/11/05 08:39:01;;;;;;;;;6.00;4.00;;;;;12.53;56.58;101383.63;5079701;27;45216;-45
2022/11/05 08:41:26;;;;;;;;;6.25;3.25;;;;;12.54;56.20;101380.09;5076503;27;53808;-45
2022/11/05 08:43:55;;;;;;;;;4.00;3.75;;;;;12.57;56.21;101391.44;5079036;27;62734;-46
2022/11/05 08:46:21;;;;;;;;;4.75;3.50;;;;;12.59;56.49;101393.13;5077979;27;46400;-43
2022/11/05 08:48:46;;;;;;;;;7.50;5.25;;;;;12.63;56.04;101399.16;5078704;27;45363;-46
2022/11/05 08:51:11;;;;;;;;;7.75;4.00;;;;;12.67;56.09;101400.81;5078152;28;45413;-44
2022/11/05 08:53:36;;;;;;;;;4.25;3.75;;;;;12.72;56.07;101407.66;5077856;27;68062;-42
2022/11/05 08:56:02;;;;;;;;;4.75;4.75;;;;;12.76;56.38;101411.06;5076933;27;70425;-44
2022/11/05 08:58:27;;;;;;;;;5.50;3.75;;;;;12.79;55.81;101413.63;5068713;27;72382;-43
2022/11/05 09:00:53;;;;;;;;;4.00;4.00;;;;;12.83;56.20;101414.41;5077835;27;45421;-43
2022/11/05 09:03:18;;;;;;;;;9.75;9.00;;;;;12.87;55.94;101419.56;5077732;28;45422;-45
2022/11/05 09:05:44;;;;;;;;;7.50;7.00;;;;;12.91;55.76;101417.72;5076132;27;46093;-47
2022/11/05 09:08:17;;;;;;;;;5.00;5.00;;;;;12.98;56.02;101407.88;5079254;27;50156;-42
2022/11/05 09:10:43;;;;;;;;;6.25;4.75;;;;;13.03;55.48;101404.25;5077287;28;45405;-42
2022/11/05 09:13:09;;;;;;;;;6.75;4.25;;;;;13.08;55.69;101402.38;5079246;27;45362;-42
2022/11/05 09:15:35;;;;;;;;;6.00;5.00;;;;;13.13;55.70;101394.34;5078237;27;45498;-43
2022/11/05 09:18:02;;;;;;;;;5.00;5.00;;;;;13.17;55.19;101392.50;5078330;27;45279;-43
2022/11/05 09:20:27;;;;;;;;;6.25;5.00;;;;;13.18;55.36;101389.84;5075642;27;45187;-42
2022/11/05 09:22:53;;;;;;;;;3.25;3.25;;;;;13.22;55.03;101383.59;5077331;27;69952;-42
2022/11/05 09:25:18;;;;;;;;;4.00;4.00;;;;;13.26;55.15;101379.09;5078066;27;46359;-47
2022/11/05 09:27:43;;;;;;;;;3.75;3.00;;;;;13.29;55.00;101386.91;5077854;28;45268;-47
2022/11/05 09:30:10;;;;;;;;;4.75;4.00;;;;;13.32;54.90;101386.00;5074358;28;45333;-46
2022/11/05 09:32:35;;;;;;;;;5.00;3.00;;;;;13.36;54.88;101379.75;5074903;28;45369;-42
2022/11/05 09:35:01;;;;;;;;;6.00;3.00;;;;;13.38;54.44;101383.19;5080122;27;69827;-48
2022/11/05 09:37:27;;;;;;;;;4.00;4.00;;;;;13.41;54.56;101394.47;5080424;27;56988;-44
2022/11/05 09:39:52;;;;;;;;;56.25;43.75;;;;;13.45;54.64;101393.47;5076725;27;45337;-43
2022/11/05 09:42:20;;;;;;;;;43.25;32.75;;;;;13.50;54.28;101387.25;5080907;27;45277;-42
2022/11/05 09:44:49;;;;;;;;;12.75;7.00;;;;;13.56;54.46;101387.91;5083183;27;45476;-42
2022/11/05 09:47:23;;;;;;;;;6.50;4.00;;;;;13.64;54.26;101387.72;5081072;27;45742;-41
2022/11/05 09:49:51;;;;;;;;;6.75;4.00;;;;;13.71;54.35;101391.88;5079716;28;45170;-43
2022/11/05 09:52:19;;;;;;;;;11.25;6.00;;;;;13.75;54.60;101390.88;5078847;28;45509;-43
2022/11/05 09:54:47;;;;;;;;;4.00;4.00;;;;;13.80;54.36;101386.34;5062148;28;46458;-41
2022/11/05 09:57:16;;;;;;;;;2.00;2.00;;;;;13.86;53.82;101391.44;5065265;28;46002;-47
2022/11/05 09:59:48;;;;;;;;;4.25;3.00;;;;;13.90;54.22;101392.19;5069424;28;45292;-44
2022/11/05 10:02:20;;;;;;;;;9.00;2.50;;;;;13.94;53.71;101391.19;5081277;27;45489;-41
2022/11/05 10:04:49;;;;;;;;;3.50;2.00;;;;;13.97;53.73;101390.22;5080877;27;47106;-42
2022/11/05 10:07:21;;;;;;;;;5.75;2.00;;;;;13.98;53.36;101395.44;5086150;27;45417;-43
2022/11/05 10:09:51;;;;;;;;;6.50;2.00;;;;;14.00;53.32;101393.63;5080917;28;45253;-42
2022/11/05 10:12:23;;;;;;;;;6.25;4.00;;;;;14.03;53.49;101385.63;5084878;27;45371;-43
2022/11/05 10:15:23;;;;;;;;;7.25;4.00;;;;;14.08;53.37;101384.63;5078705;27;46271;-48
2022/11/05 10:17:58;;;;;;;;;3.00;3.00;;;;;14.10;53.35;101383.69;5081378;27;45702;-45
2022/11/05 10:20:31;;;;;;;;;5.25;4.75;;;;;14.15;53.15;101381.78;5073794;27;45336;-44
2022/11/05 10:23:08;;;;;;;;;5.75;3.75;;;;;14.18;53.11;101379.06;5079598;27;45584;-45
2022/11/05 10:25:37;;;;;;;;;4.00;3.00;;;;;14.24;53.36;101385.88;5082632;27;46423;-42
2022/11/05 10:28:03;;;;;;;;;5.25;5.25;;;;;14.24;52.99;101384.09;5096268;27;45449;-44
2022/11/05 10:30:28;;;;;;;;;4.75;4.50;;;;;14.28;53.15;101384.88;5081870;27;45502;-45
2022/11/05 10:32:55;;;;;;;;;5.00;3.00;;;;;14.32;52.85;101390.91;5081506;27;57416;-43
2022/11/05 10:35:23;;;;;;;;;6.75;4.25;;;;;14.32;52.71;101388.25;5081790;27;45317;-44
2022/11/05 10:37:49;;;;;;;;;5.00;3.50;;;;;14.34;52.80;101389.06;5079726;27;45806;-43
2022/11/05 10:40:48;;;;;;;;;2.25;1.75;;;;;14.36;52.59;101390.75;5076452;28;45320;-42
2022/11/05 10:43:19;;;;;;;;;3.25;3.25;;;;;14.36;52.70;101393.41;5081219;27;46167;-43
2022/11/05 10:45:49;;;;;;;;;7.00;3.25;;;;;14.37;52.20;101396.88;5080394;27;46203;-43
2022/11/05 10:48:41;;;;;;;;;4.00;4.00;;;;;14.37;52.45;101399.50;5072349;28;45386;-42
2022/11/05 10:51:07;;;;;;;;;3.50;3.50;;;;;14.38;52.45;101391.56;5078414;27;45281;-43
2022/11/05 10:53:35;;;;;;;;;4.00;2.50;;;;;14.40;52.33;101395.00;5079156;27;45278;-44
2022/11/05 10:56:01;;;;;;;;;2.00;2.00;;;;;14.43;52.39;101396.69;5077695;27;46169;-43
2022/11/05 10:58:29;;;;;;;;;4.00;2.50;;;;;14.46;52.18;101399.22;5076628;27;45394;-43
2022/11/05 11:00:54;;;;;;;;;3.00;2.25;;;;;14.49;52.11;101399.13;5077628;28;45430;-42
2022/11/05 11:03:38;;;;;;;;;3.33;2.00;;;;;14.51;52.46;101399.06;5080665;28;45354;-42
2022/11/05 11:06:24;;;;;;;;;4.25;3.00;;;;;14.55;52.56;101398.03;5077801;28;45582;-48
2022/11/05 11:08:50;;;;;;;;;4.75;4.75;;;;;14.54;52.75;101391.06;5079113;28;45667;-45
2022/11/05 11:11:36;;;;;;;;;2.25;2.00;;;;;14.56;52.22;101399.78;5079328;28;45399;-44
2022/11/05 11:14:03;;;;;;;;;2.00;1.50;;;;;14.56;52.61;101390.09;5082966;27;45778;-44
2022/11/05 11:16:34;;;;;;;;;41.50;33.25;;;;;14.58;52.26;101384.81;5079502;28;45379;-44
2022/11/05 11:19:00;;;;;;;;;3.50;3.00;;;;;14.61;52.64;101380.31;5074031;27;45791;-44
2022/11/05 11:21:27;;;;;;;;;2.25;2.25;;;;;14.60;52.60;101383.84;5075602;27;45410;-45
2022/11/05 11:24:01;;;;;;;;;1.25;1.25;;;;;14.59;52.58;101376.88;5078920;28;45272;-46
2022/11/05 11:26:36;;;;;;;;;2.00;2.00;;;;;14.57;52.40;101373.41;5080495;27;46308;-41
2022/11/05 11:29:17;;;;;;;;;6.50;3.50;;;;;14.59;52.46;101379.50;5076923;28;45229;-46
2022/11/05 11:31:42;;;;;;;;;4.50;0.50;;;;;14.61;52.25;101372.41;5078342;28;45406;-42
2022/11/05 11:34:17;;;;;;;;;3.00;2.50;;;;;14.65;52.51;101372.31;5095751;27;45921;-48
2022/11/05 11:36:45;;;;;;;;;1.50;1.50;;;;;14.66;52.39;101377.53;5078433;27;45389;-41
2022/11/05 11:39:24;;;;;;;;;3.00;3.00;;;;;14.68;52.69;101366.91;5078116;27;45363;-41
2022/11/05 11:41:53;;;;;;;;;3.75;3.00;;;;;14.71;52.46;101358.91;5078464;28;45330;-42
2022/11/05 11:44:27;;;;;;;;;5.75;4.25;;;;;14.75;52.47;101357.88;5078622;27;45411;-46
2022/11/05 11:47:01;;;;;;;;;7.50;4.75;;;;;14.83;52.59;101358.50;5074589;27;46417;-44
2022/11/05 11:49:48;;;;;;;;;6.25;4.75;;;;;14.88;52.41;101358.34;5078015;28;45804;-44
2022/11/05 11:52:30;;;;;;;;;3.50;2.75;;;;;14.95;52.59;101359.84;5073690;28;45470;-47
2022/11/05 11:55:10;;;;;;;;;4.25;3.75;;;;;15.00;52.89;101348.22;5080681;27;45295;-45
2022/11/05 11:57:48;;;;;;;;;4.75;3.50;;;;;15.06;52.67;101351.56;5072458;27;46149;-42
2022/11/05 12:00:15;;;;;;;;;7.00;3.00;;;;;15.11;52.51;101355.75;5071619;28;45237;-46
2022/11/05 12:02:58;;;;;;;;;7.50;4.25;;;;;15.15;52.78;101357.34;5079833;27;45338;-42
2022/11/05 12:05:40;;;;;;;;;6.25;5.00;;;;;15.17;52.51;101347.63;5075690;28;45208;-43
2022/11/05 12:08:16;;;;;;;;;16.00;11.75;;;;;15.19;52.55;101351.06;5061476;28;47739;-44